Ellen Mcallister — WDG3673 — position and weather

sailwx.info

Track history (hours):
 
Tides and Currents Weather Stations Pressure Air Temp Water Temp Dewpoint Dewpoint Depression Visibility Wind Speed Wind Dir Waves Ship Positions

Ellen Mcallister

More information available from US FCC via Universal Licensing System and Coast Guard Vessel Documentation Center.

Last reported at 2014-Jul-27 14:31 UTC. Time now 2014-Jul-28 12:23 UTC.
Position N 40°40' W 074°04'.

Length 35 m.

Type: Tug. MMSI: 366836590.

Date/timePositionNaut miles runAvg speedWind from/ knotsBaromVisibWave heightAir tempDewpointWater temp
2014-Jul-27 14:31N 40°40' W 074°04'1 0.0
2014-Jul-25 23:26N 40°39' W 074°04'1 0.4
2014-Jul-25 20:30N 40°38' W 074°04'5 5.3
2014-Jul-25 19:33N 40°42' W 074°00'2 1.1
2014-Jul-25 18:07N 40°43' W 073°58'3 5.5
2014-Jul-25 17:33N 40°41' W 074°02'3 1.0
2014-Jul-25 15:05N 40°40' W 074°05'2 0.1
2014-Jul-24 13:32N 40°40' W 074°03'4 3.9
2014-Jul-24 12:30N 40°43' W 073°58'4 4.1
2014-Jul-24 11:32N 40°40' W 074°03'  
2014-Jul-21 15:15N 40°39' W 074°10'0 0.0
2014-Jul-21 14:29N 40°39' W 074°10'5 0.3
2014-Jul-20 21:24N 40°39' W 074°04'  
2014-Jul-17 18:22N 40°40' W 074°04'0 0.1
2014-Jul-17 16:18N 40°40' W 074°04'3 4.3
2014-Jul-17 15:30N 40°40' W 074°09'  
Track history (hours):
 
Tides and Currents Weather Stations Pressure Air Temp Water Temp Dewpoint Dewpoint Depression Visibility Wind Speed Wind Dir Waves Ship Positions

Ellen Mcallister

More information available from US FCC via Universal Licensing System and Coast Guard Vessel Documentation Center.

Last reported at 2014-Jul-27 14:31 UTC. Time now 2014-Jul-28 12:23 UTC.
Position N 40°40' W 074°04'.

Length 35 m.

Type: Tug. MMSI: 366836590.

Date/timePositionNaut miles runAvg speedWind from/ knotsBaromVisibWave heightAir tempDewpointWater temp
2014-Jul-27 14:31N 40°40' W 074°04'1 0.0
2014-Jul-25 23:26N 40°39' W 074°04'1 0.4
2014-Jul-25 20:30N 40°38' W 074°04'5 5.3
2014-Jul-25 19:33N 40°42' W 074°00'2 1.1
2014-Jul-25 18:07N 40°43' W 073°58'3 5.5
2014-Jul-25 17:33N 40°41' W 074°02'3 1.0
2014-Jul-25 15:05N 40°40' W 074°05'2 0.1
2014-Jul-24 13:32N 40°40' W 074°03'4 3.9
2014-Jul-24 12:30N 40°43' W 073°58'4 4.1
2014-Jul-24 11:32N 40°40' W 074°03'  
2014-Jul-21 15:15N 40°39' W 074°10'0 0.0
2014-Jul-21 14:29N 40°39' W 074°10'5 0.3
2014-Jul-20 21:24N 40°39' W 074°04'  
2014-Jul-17 18:22N 40°40' W 074°04'0 0.1
2014-Jul-17 16:18N 40°40' W 074°04'3 4.3
2014-Jul-17 15:30N 40°40' W 074°09'  

Dump ship's entire track history